Airfield :
LOGIN :

Register | Disclaimer

   EN    FR    IT 

 










Legend :    VFR   Marginal VFR   IFR   Intensive IFR   Very Intensive IFR
Visi :
Ceiling :
>= 8 km
>= 3000ft
5 to 8 km
1000 to 3000 ft
1500m to 5 km
500 to 1000 ft
800 to 1500m
200 to 500 ft
< 800m
< 200 ft
Symbols :   Thunderstorms  Fog  Heavy snow  Heavy precipitations  Wind > 20 kt
SIGMETs :     Misc.  Thunderstorms  Icing  Turbulence  Mountain Waves  Volcanic Ashes







- Airport Elevation : 22 ft
- IATA code : LDY
- Download approach charts


EGAE - Londonderry Eglington

CURRENT METAR :
  • 241720Z 04009KT 9999 FEW025 BKN040 17/15 Q1024

EXPIRED METARs :
  • 241650Z 04009KT 9999 FEW025 BKN032 17/15 Q1024
  • 241620Z 01008KT 260V060 9999 FEW025 BKN032 18/15 Q1024
  • 241550Z 25007KT 9999 FEW025 BKN032 20/15 Q1024
  • 241520Z 25009KT 9999 BKN032 20/15 Q1024
  • 241450Z 24010KT 9999 BKN032 20/15 Q1025

TAF TAF EGAE
Valid from the 24 at 18:00 until the 24 at 21:00 UTC


241648Z 2418/2421 01005KT 9999 SCT040
No reported NOTAMs for that airfield.



MET'MAP, your aeronautical weather chart ! - Copyright ORBIFLY December 2007 - Disclaimer

ORBIFLY MET'MAP TEAM :

Programming & Development : Alexandra Zaïnal
Concept & Development : Baudouin d'Aumeries
Co-Development & Prog : Marc-Olivier Méhu
Technical & hardware support : Manuel Goepfert

Contact : metmap@orbifly.com




SOURCES & CREDITS :

   NOAA